sensor_id;sensor_type;location;lat;lon;timestamp;temperature;humidity
23475;DHT22;11910;52.086;21.066;2023-08-07T00:00:09;17.00;99.90
23475;DHT22;11910;52.086;21.066;2023-08-07T00:02:35;17.00;99.90
23475;DHT22;11910;52.086;21.066;2023-08-07T00:05:01;17.00;99.90
23475;DHT22;11910;52.086;21.066;2023-08-07T00:07:27;17.00;99.90
23475;DHT22;11910;52.086;21.066;2023-08-07T00:09:52;17.10;99.90
23475;DHT22;11910;52.086;21.066;2023-08-07T00:12:18;17.10;99.90
23475;DHT22;11910;52.086;21.066;2023-08-07T00:14:43;17.10;99.90
23475;DHT22;11910;52.086;21.066;2023-08-07T00:17:09;17.00;99.90
23475;DHT22;11910;52.086;21.066;2023-08-07T00:19:34;17.00;99.90
23475;DHT22;11910;52.086;21.066;2023-08-07T00:22:00;17.10;99.90
23475;DHT22;11910;52.086;21.066;2023-08-07T00:24:25;17.00;99.90
23475;DHT22;11910;52.086;21.066;2023-08-07T00:26:51;17.00;99.90
23475;DHT22;11910;52.086;21.066;2023-08-07T00:29:17;17.00;99.90
23475;DHT22;11910;52.086;21.066;2023-08-07T00:31:42;17.00;99.90
23475;DHT22;11910;52.086;21.066;2023-08-07T00:34:08;16.90;99.90
23475;DHT22;11910;52.086;21.066;2023-08-07T00:36:35;16.90;99.90
23475;DHT22;11910;52.086;21.066;2023-08-07T00:39:01;17.00;99.90
23475;DHT22;11910;52.086;21.066;2023-08-07T00:41:29;17.00;99.90
23475;DHT22;11910;52.086;21.066;2023-08-07T00:43:54;17.10;99.90
23475;DHT22;11910;52.086;21.066;2023-08-07T00:46:20;17.00;99.90
23475;DHT22;11910;52.086;21.066;2023-08-07T00:48:46;17.10;99.90
23475;DHT22;11910;52.086;21.066;2023-08-07T00:51:12;17.10;99.90
23475;DHT22;11910;52.086;21.066;2023-08-07T00:53:39;17.10;99.90
23475;DHT22;11910;52.086;21.066;2023-08-07T00:56:05;17.00;99.90
23475;DHT22;11910;52.086;21.066;2023-08-07T00:58:32;17.00;99.90
23475;DHT22;11910;52.086;21.066;2023-08-07T01:00:58;17.00;99.90
23475;DHT22;11910;52.086;21.066;2023-08-07T01:03:24;17.00;99.90
23475;DHT22;11910;52.086;21.066;2023-08-07T01:05:50;17.00;99.90
23475;DHT22;11910;52.086;21.066;2023-08-07T01:08:16;17.00;99.90
23475;DHT22;11910;52.086;21.066;2023-08-07T01:14:08;17.00;99.90
23475;DHT22;11910;52.086;21.066;2023-08-07T01:16:47;16.90;99.90
23475;DHT22;11910;52.086;21.066;2023-08-07T01:19:34;16.90;99.90
23475;DHT22;11910;52.086;21.066;2023-08-07T01:22:09;16.80;99.90
23475;DHT22;11910;52.086;21.066;2023-08-07T01:24:36;16.80;99.90
23475;DHT22;11910;52.086;21.066;2023-08-07T01:29:49;16.70;99.90
23475;DHT22;11910;52.086;21.066;2023-08-07T01:32:26;16.70;99.90
23475;DHT22;11910;52.086;21.066;2023-08-07T01:34:54;16.70;99.90
23475;DHT22;11910;52.086;21.066;2023-08-07T01:37:23;16.70;99.90
23475;DHT22;11910;52.086;21.066;2023-08-07T01:39:50;16.60;99.90
23475;DHT22;11910;52.086;21.066;2023-08-07T01:42:16;16.60;99.90
23475;DHT22;11910;52.086;21.066;2023-08-07T01:44:41;16.60;99.90
23475;DHT22;11910;52.086;21.066;2023-08-07T01:47:07;16.60;99.90
23475;DHT22;11910;52.086;21.066;2023-08-07T01:49:33;16.50;99.90
23475;DHT22;11910;52.086;21.066;2023-08-07T01:51:58;16.40;99.90
23475;DHT22;11910;52.086;21.066;2023-08-07T01:54:24;16.40;99.90
23475;DHT22;11910;52.086;21.066;2023-08-07T01:56:49;16.30;99.90
23475;DHT22;11910;52.086;21.066;2023-08-07T01:59:15;16.30;99.90
23475;DHT22;11910;52.086;21.066;2023-08-07T02:01:40;16.40;99.90
23475;DHT22;11910;52.086;21.066;2023-08-07T02:04:06;16.30;99.90
23475;DHT22;11910;52.086;21.066;2023-08-07T02:06:32;16.30;99.90
23475;DHT22;11910;52.086;21.066;2023-08-07T02:08:57;16.30;99.90
23475;DHT22;11910;52.086;21.066;2023-08-07T02:11:23;16.30;99.90
23475;DHT22;11910;52.086;21.066;2023-08-07T02:13:49;16.20;99.90
23475;DHT22;11910;52.086;21.066;2023-08-07T02:16:14;16.10;99.90
23475;DHT22;11910;52.086;21.066;2023-08-07T02:18:40;16.10;99.90
23475;DHT22;11910;52.086;21.066;2023-08-07T02:21:05;16.10;99.90
23475;DHT22;11910;52.086;21.066;2023-08-07T02:23:31;16.20;99.90
23475;DHT22;11910;52.086;21.066;2023-08-07T02:25:57;16.20;99.90
23475;DHT22;11910;52.086;21.066;2023-08-07T02:28:22;16.20;99.90
23475;DHT22;11910;52.086;21.066;2023-08-07T02:30:48;16.20;99.90
23475;DHT22;11910;52.086;21.066;2023-08-07T02:33:16;16.20;99.90
23475;DHT22;11910;52.086;21.066;2023-08-07T02:35:42;16.30;99.90
23475;DHT22;11910;52.086;21.066;2023-08-07T02:38:07;16.30;99.90
23475;DHT22;11910;52.086;21.066;2023-08-07T02:40:33;16.30;99.90
23475;DHT22;11910;52.086;21.066;2023-08-07T02:42:58;16.30;99.90
23475;DHT22;11910;52.086;21.066;2023-08-07T02:45:24;16.40;99.90
23475;DHT22;11910;52.086;21.066;2023-08-07T02:47:50;16.40;99.90
23475;DHT22;11910;52.086;21.066;2023-08-07T02:50:15;16.40;99.90
23475;DHT22;11910;52.086;21.066;2023-08-07T02:52:41;16.40;99.90
23475;DHT22;11910;52.086;21.066;2023-08-07T02:55:07;16.50;99.90
23475;DHT22;11910;52.086;21.066;2023-08-07T02:57:32;16.50;99.90
23475;DHT22;11910;52.086;21.066;2023-08-07T02:59:58;16.40;99.90
23475;DHT22;11910;52.086;21.066;2023-08-07T03:02:23;16.40;99.90
23475;DHT22;11910;52.086;21.066;2023-08-07T03:04:49;16.30;99.90
23475;DHT22;11910;52.086;21.066;2023-08-07T03:07:15;16.20;99.90
23475;DHT22;11910;52.086;21.066;2023-08-07T03:09:40;16.20;99.90
23475;DHT22;11910;52.086;21.066;2023-08-07T03:12:06;16.20;99.90
23475;DHT22;11910;52.086;21.066;2023-08-07T03:14:32;16.20;99.90
23475;DHT22;11910;52.086;21.066;2023-08-07T03:16:57;16.20;99.90
23475;DHT22;11910;52.086;21.066;2023-08-07T03:19:24;16.20;99.90
23475;DHT22;11910;52.086;21.066;2023-08-07T03:21:49;16.30;99.90
23475;DHT22;11910;52.086;21.066;2023-08-07T03:24:15;16.30;99.90
23475;DHT22;11910;52.086;21.066;2023-08-07T03:26:40;16.20;99.90
23475;DHT22;11910;52.086;21.066;2023-08-07T03:29:06;16.30;99.90
23475;DHT22;11910;52.086;21.066;2023-08-07T03:31:32;16.20;99.90
23475;DHT22;11910;52.086;21.066;2023-08-07T03:33:57;16.20;99.90
23475;DHT22;11910;52.086;21.066;2023-08-07T03:36:23;16.10;99.90
23475;DHT22;11910;52.086;21.066;2023-08-07T03:38:49;16.20;99.90
23475;DHT22;11910;52.086;21.066;2023-08-07T03:41:15;16.20;99.90
23475;DHT22;11910;52.086;21.066;2023-08-07T03:43:40;16.20;99.90
23475;DHT22;11910;52.086;21.066;2023-08-07T03:46:06;16.20;99.90
23475;DHT22;11910;52.086;21.066;2023-08-07T03:48:31;16.20;99.90
23475;DHT22;11910;52.086;21.066;2023-08-07T03:51:07;16.20;99.90
23475;DHT22;11910;52.086;21.066;2023-08-07T03:53:37;16.20;99.90
23475;DHT22;11910;52.086;21.066;2023-08-07T03:56:03;16.30;99.90
23475;DHT22;11910;52.086;21.066;2023-08-07T03:58:29;16.30;99.90
23475;DHT22;11910;52.086;21.066;2023-08-07T04:00:55;16.30;99.90
23475;DHT22;11910;52.086;21.066;2023-08-07T04:03:21;16.30;99.90
23475;DHT22;11910;52.086;21.066;2023-08-07T04:05:47;16.30;99.90
23475;DHT22;11910;52.086;21.066;2023-08-07T04:08:12;16.30;99.90
23475;DHT22;11910;52.086;21.066;2023-08-07T04:10:38;16.30;99.90
23475;DHT22;11910;52.086;21.066;2023-08-07T04:13:03;16.40;99.90
23475;DHT22;11910;52.086;21.066;2023-08-07T04:15:29;16.30;99.90
23475;DHT22;11910;52.086;21.066;2023-08-07T04:17:55;16.40;99.90
23475;DHT22;11910;52.086;21.066;2023-08-07T04:20:20;16.40;99.90
23475;DHT22;11910;52.086;21.066;2023-08-07T04:22:46;16.40;99.90
23475;DHT22;11910;52.086;21.066;2023-08-07T04:25:12;16.40;99.90
23475;DHT22;11910;52.086;21.066;2023-08-07T04:27:37;16.40;99.90
23475;DHT22;11910;52.086;21.066;2023-08-07T04:30:05;16.40;99.90
23475;DHT22;11910;52.086;21.066;2023-08-07T04:32:30;16.50;99.90
23475;DHT22;11910;52.086;21.066;2023-08-07T04:34:56;16.50;99.90
23475;DHT22;11910;52.086;21.066;2023-08-07T04:37:22;16.50;99.90
23475;DHT22;11910;52.086;21.066;2023-08-07T04:39:47;16.50;99.90
23475;DHT22;11910;52.086;21.066;2023-08-07T04:42:13;16.40;99.90
23475;DHT22;11910;52.086;21.066;2023-08-07T04:44:38;16.50;99.90
23475;DHT22;11910;52.086;21.066;2023-08-07T04:47:05;16.50;99.90
23475;DHT22;11910;52.086;21.066;2023-08-07T04:49:30;16.50;99.90
23475;DHT22;11910;52.086;21.066;2023-08-07T04:51:56;16.50;99.90
23475;DHT22;11910;52.086;21.066;2023-08-07T04:54:22;16.50;99.90
23475;DHT22;11910;52.086;21.066;2023-08-07T04:56:48;16.60;99.90
23475;DHT22;11910;52.086;21.066;2023-08-07T04:59:13;16.60;99.90
23475;DHT22;11910;52.086;21.066;2023-08-07T05:01:39;16.60;99.90
23475;DHT22;11910;52.086;21.066;2023-08-07T05:04:05;16.60;99.90
23475;DHT22;11910;52.086;21.066;2023-08-07T05:06:31;16.60;99.90
23475;DHT22;11910;52.086;21.066;2023-08-07T05:08:57;16.60;99.90
23475;DHT22;11910;52.086;21.066;2023-08-07T05:11:22;16.60;99.90
23475;DHT22;11910;52.086;21.066;2023-08-07T05:13:48;16.70;99.90
23475;DHT22;11910;52.086;21.066;2023-08-07T05:16:13;16.70;99.90
23475;DHT22;11910;52.086;21.066;2023-08-07T05:18:39;16.80;99.90
23475;DHT22;11910;52.086;21.066;2023-08-07T05:21:05;16.80;99.90
23475;DHT22;11910;52.086;21.066;2023-08-07T05:23:32;16.80;99.90
23475;DHT22;11910;52.086;21.066;2023-08-07T05:25:58;16.90;99.90
23475;DHT22;11910;52.086;21.066;2023-08-07T05:28:23;16.90;99.90
23475;DHT22;11910;52.086;21.066;2023-08-07T05:30:49;17.00;99.90
23475;DHT22;11910;52.086;21.066;2023-08-07T05:33:14;17.00;99.90
23475;DHT22;11910;52.086;21.066;2023-08-07T05:35:41;17.10;99.90
23475;DHT22;11910;52.086;21.066;2023-08-07T05:38:06;17.20;99.90
23475;DHT22;11910;52.086;21.066;2023-08-07T05:40:32;17.20;99.90
23475;DHT22;11910;52.086;21.066;2023-08-07T05:42:59;17.10;99.90
23475;DHT22;11910;52.086;21.066;2023-08-07T05:45:25;17.10;99.90
23475;DHT22;11910;52.086;21.066;2023-08-07T05:47:50;17.10;99.90
23475;DHT22;11910;52.086;21.066;2023-08-07T05:50:16;17.00;99.90
23475;DHT22;11910;52.086;21.066;2023-08-07T05:52:41;17.10;99.90
23475;DHT22;11910;52.086;21.066;2023-08-07T05:55:07;17.10;99.90
23475;DHT22;11910;52.086;21.066;2023-08-07T05:57:34;17.00;99.90
23475;DHT22;11910;52.086;21.066;2023-08-07T05:59:59;17.00;99.90
23475;DHT22;11910;52.086;21.066;2023-08-07T06:02:25;17.00;99.90
23475;DHT22;11910;52.086;21.066;2023-08-07T06:04:50;17.00;99.90
23475;DHT22;11910;52.086;21.066;2023-08-07T06:07:16;17.00;99.90
23475;DHT22;11910;52.086;21.066;2023-08-07T06:09:42;17.10;99.90
23475;DHT22;11910;52.086;21.066;2023-08-07T06:12:08;17.10;99.90
23475;DHT22;11910;52.086;21.066;2023-08-07T06:14:33;17.10;99.90
23475;DHT22;11910;52.086;21.066;2023-08-07T06:16:59;17.20;99.90
23475;DHT22;11910;52.086;21.066;2023-08-07T06:19:26;17.20;99.90
23475;DHT22;11910;52.086;21.066;2023-08-07T06:21:55;17.20;99.90
23475;DHT22;11910;52.086;21.066;2023-08-07T06:24:21;17.20;99.90
23475;DHT22;11910;52.086;21.066;2023-08-07T06:26:50;17.20;99.90
23475;DHT22;11910;52.086;21.066;2023-08-07T06:29:16;17.30;99.90
23475;DHT22;11910;52.086;21.066;2023-08-07T06:31:42;17.40;99.90
23475;DHT22;11910;52.086;21.066;2023-08-07T06:34:09;17.60;99.90
23475;DHT22;11910;52.086;21.066;2023-08-07T06:36:34;17.50;99.90
23475;DHT22;11910;52.086;21.066;2023-08-07T06:39:00;17.50;99.90
23475;DHT22;11910;52.086;21.066;2023-08-07T06:41:26;17.30;99.90
23475;DHT22;11910;52.086;21.066;2023-08-07T06:43:51;17.20;99.90
23475;DHT22;11910;52.086;21.066;2023-08-07T06:46:17;17.10;99.90
23475;DHT22;11910;52.086;21.066;2023-08-07T06:48:43;17.20;99.90
23475;DHT22;11910;52.086;21.066;2023-08-07T06:51:09;17.40;99.90
23475;DHT22;11910;52.086;21.066;2023-08-07T06:53:35;17.60;99.90
23475;DHT22;11910;52.086;21.066;2023-08-07T06:56:00;17.80;99.90
23475;DHT22;11910;52.086;21.066;2023-08-07T06:58:26;18.00;99.90
23475;DHT22;11910;52.086;21.066;2023-08-07T07:00:52;18.10;98.90
23475;DHT22;11910;52.086;21.066;2023-08-07T07:03:17;18.20;99.10
23475;DHT22;11910;52.086;21.066;2023-08-07T07:05:43;18.30;98.50
23475;DHT22;11910;52.086;21.066;2023-08-07T07:08:09;18.20;97.80
23475;DHT22;11910;52.086;21.066;2023-08-07T07:10:34;18.30;98.60
23475;DHT22;11910;52.086;21.066;2023-08-07T07:13:00;18.20;97.80
23475;DHT22;11910;52.086;21.066;2023-08-07T07:15:26;18.10;97.40
23475;DHT22;11910;52.086;21.066;2023-08-07T07:17:51;18.10;98.00
23475;DHT22;11910;52.086;21.066;2023-08-07T07:20:17;18.00;97.80
23475;DHT22;11910;52.086;21.066;2023-08-07T07:22:42;18.00;97.70
23475;DHT22;11910;52.086;21.066;2023-08-07T07:25:08;18.00;97.60
23475;DHT22;11910;52.086;21.066;2023-08-07T07:27:34;18.00;97.40
23475;DHT22;11910;52.086;21.066;2023-08-07T07:30:00;18.00;97.60
23475;DHT22;11910;52.086;21.066;2023-08-07T07:32:26;18.00;97.70
23475;DHT22;11910;52.086;21.066;2023-08-07T07:34:51;17.90;98.00
23475;DHT22;11910;52.086;21.066;2023-08-07T07:37:17;17.90;98.30
23475;DHT22;11910;52.086;21.066;2023-08-07T07:39:43;18.00;98.50
23475;DHT22;11910;52.086;21.066;2023-08-07T07:42:08;17.90;98.00
23475;DHT22;11910;52.086;21.066;2023-08-07T07:44:36;17.80;98.00
23475;DHT22;11910;52.086;21.066;2023-08-07T07:47:07;17.80;98.00
23475;DHT22;11910;52.086;21.066;2023-08-07T07:49:35;18.00;97.60
23475;DHT22;11910;52.086;21.066;2023-08-07T07:52:01;18.00;97.40
23475;DHT22;11910;52.086;21.066;2023-08-07T07:54:28;18.00;97.40
23475;DHT22;11910;52.086;21.066;2023-08-07T07:56:54;18.00;97.60
23475;DHT22;11910;52.086;21.066;2023-08-07T07:59:19;18.00;97.20
23475;DHT22;11910;52.086;21.066;2023-08-07T08:01:45;17.90;97.40
23475;DHT22;11910;52.086;21.066;2023-08-07T08:04:10;18.00;97.50
23475;DHT22;11910;52.086;21.066;2023-08-07T08:06:36;18.30;97.80
23475;DHT22;11910;52.086;21.066;2023-08-07T08:09:02;18.70;97.10
23475;DHT22;11910;52.086;21.066;2023-08-07T08:11:36;18.70;96.10
23475;DHT22;11910;52.086;21.066;2023-08-07T08:14:02;18.70;96.60
23475;DHT22;11910;52.086;21.066;2023-08-07T08:16:27;18.50;96.20
23475;DHT22;11910;52.086;21.066;2023-08-07T08:18:53;18.60;96.10
23475;DHT22;11910;52.086;21.066;2023-08-07T08:21:19;18.60;95.70
23475;DHT22;11910;52.086;21.066;2023-08-07T08:23:44;18.80;95.30
23475;DHT22;11910;52.086;21.066;2023-08-07T08:26:10;19.30;95.60
23475;DHT22;11910;52.086;21.066;2023-08-07T08:28:35;19.60;94.20
23475;DHT22;11910;52.086;21.066;2023-08-07T08:31:01;19.70;93.20
23475;DHT22;11910;52.086;21.066;2023-08-07T08:33:27;19.60;92.60
23475;DHT22;11910;52.086;21.066;2023-08-07T08:35:52;19.60;92.80
23475;DHT22;11910;52.086;21.066;2023-08-07T08:38:18;19.70;93.30
23475;DHT22;11910;52.086;21.066;2023-08-07T08:40:45;20.30;91.60
23475;DHT22;11910;52.086;21.066;2023-08-07T08:43:12;20.40;90.50
23475;DHT22;11910;52.086;21.066;2023-08-07T08:45:39;20.70;89.70
23475;DHT22;11910;52.086;21.066;2023-08-07T08:48:07;20.60;89.80
23475;DHT22;11910;52.086;21.066;2023-08-07T08:50:36;21.80;87.10
23475;DHT22;11910;52.086;21.066;2023-08-07T08:53:04;22.90;84.10
23475;DHT22;11910;52.086;21.066;2023-08-07T08:55:30;22.90;82.50
23475;DHT22;11910;52.086;21.066;2023-08-07T08:57:57;25.40;76.70
23475;DHT22;11910;52.086;21.066;2023-08-07T09:00:26;24.00;73.00
23475;DHT22;11910;52.086;21.066;2023-08-07T09:02:54;24.20;72.70
23475;DHT22;11910;52.086;21.066;2023-08-07T09:05:21;24.20;73.50
23475;DHT22;11910;52.086;21.066;2023-08-07T09:07:48;25.90;72.10
23475;DHT22;11910;52.086;21.066;2023-08-07T09:10:15;26.30;68.50
23475;DHT22;11910;52.086;21.066;2023-08-07T09:12:45;25.80;65.60
23475;DHT22;11910;52.086;21.066;2023-08-07T09:15:16;25.20;64.60
23475;DHT22;11910;52.086;21.066;2023-08-07T09:17:42;26.40;62.10
23475;DHT22;11910;52.086;21.066;2023-08-07T09:20:10;29.10;61.00
23475;DHT22;11910;52.086;21.066;2023-08-07T09:22:41;30.80;58.40
23475;DHT22;11910;52.086;21.066;2023-08-07T09:25:07;29.90;56.50
23475;DHT22;11910;52.086;21.066;2023-08-07T09:27:38;28.40;56.40
23475;DHT22;11910;52.086;21.066;2023-08-07T09:30:05;30.70;54.00
23475;DHT22;11910;52.086;21.066;2023-08-07T09:32:33;31.70;53.00
23475;DHT22;11910;52.086;21.066;2023-08-07T09:35:02;32.90;50.70
23475;DHT22;11910;52.086;21.066;2023-08-07T09:37:28;33.60;49.80
23475;DHT22;11910;52.086;21.066;2023-08-07T09:39:54;34.40;49.00
23475;DHT22;11910;52.086;21.066;2023-08-07T09:42:21;35.00;46.60
23475;DHT22;11910;52.086;21.066;2023-08-07T09:44:46;35.00;46.00
23475;DHT22;11910;52.086;21.066;2023-08-07T09:47:18;35.10;46.30
23475;DHT22;11910;52.086;21.066;2023-08-07T09:49:45;33.60;44.30
23475;DHT22;11910;52.086;21.066;2023-08-07T09:52:16;33.60;46.50
23475;DHT22;11910;52.086;21.066;2023-08-07T09:54:47;31.00;49.90
23475;DHT22;11910;52.086;21.066;2023-08-07T09:57:13;29.60;51.20
23475;DHT22;11910;52.086;21.066;2023-08-07T09:59:40;27.80;52.00
23475;DHT22;11910;52.086;21.066;2023-08-07T10:02:08;26.70;54.10
23475;DHT22;11910;52.086;21.066;2023-08-07T10:04:35;25.70;56.40
23475;DHT22;11910;52.086;21.066;2023-08-07T10:07:01;24.70;58.10
23475;DHT22;11910;52.086;21.066;2023-08-07T10:09:27;25.20;59.50
23475;DHT22;11910;52.086;21.066;2023-08-07T10:11:54;27.00;55.40
23475;DHT22;11910;52.086;21.066;2023-08-07T10:14:21;30.20;53.70
23475;DHT22;11910;52.086;21.066;2023-08-07T10:16:47;31.80;50.70
23475;DHT22;11910;52.086;21.066;2023-08-07T10:19:14;33.60;50.10
23475;DHT22;11910;52.086;21.066;2023-08-07T10:21:40;32.20;48.40
23475;DHT22;11910;52.086;21.066;2023-08-07T10:24:10;32.00;48.50
23475;DHT22;11910;52.086;21.066;2023-08-07T10:26:39;29.70;50.30
23475;DHT22;11910;52.086;21.066;2023-08-07T10:29:09;28.20;51.80
23475;DHT22;11910;52.086;21.066;2023-08-07T10:31:36;26.90;54.40
23475;DHT22;11910;52.086;21.066;2023-08-07T10:34:02;26.20;55.10
23475;DHT22;11910;52.086;21.066;2023-08-07T10:36:34;25.40;56.70
23475;DHT22;11910;52.086;21.066;2023-08-07T10:39:11;25.00;58.10
23475;DHT22;11910;52.086;21.066;2023-08-07T10:41:42;25.10;57.80
23475;DHT22;11910;52.086;21.066;2023-08-07T10:44:25;25.40;58.10
23475;DHT22;11910;52.086;21.066;2023-08-07T10:46:53;26.50;55.70
23475;DHT22;11910;52.086;21.066;2023-08-07T10:52:09;25.50;56.00
23475;DHT22;11910;52.086;21.066;2023-08-07T10:54:38;24.80;56.20
23475;DHT22;11910;52.086;21.066;2023-08-07T10:57:11;24.20;57.30
23475;DHT22;11910;52.086;21.066;2023-08-07T10:59:38;23.90;59.10
23475;DHT22;11910;52.086;21.066;2023-08-07T11:02:10;23.40;59.50
23475;DHT22;11910;52.086;21.066;2023-08-07T11:04:37;23.00;60.40
23475;DHT22;11910;52.086;21.066;2023-08-07T11:07:03;22.70;61.00
23475;DHT22;11910;52.086;21.066;2023-08-07T11:09:28;22.30;62.10
23475;DHT22;11910;52.086;21.066;2023-08-07T11:11:54;22.10;62.10
23475;DHT22;11910;52.086;21.066;2023-08-07T11:14:20;22.60;62.00
23475;DHT22;11910;52.086;21.066;2023-08-07T11:16:47;23.90;59.60
23475;DHT22;11910;52.086;21.066;2023-08-07T11:19:14;27.60;56.60
23475;DHT22;11910;52.086;21.066;2023-08-07T11:21:41;29.50;51.80
23475;DHT22;11910;52.086;21.066;2023-08-07T11:24:08;28.50;53.50
23475;DHT22;11910;52.086;21.066;2023-08-07T11:26:33;27.90;51.40
23475;DHT22;11910;52.086;21.066;2023-08-07T11:28:59;27.10;53.00
23475;DHT22;11910;52.086;21.066;2023-08-07T11:31:25;27.70;54.10
23475;DHT22;11910;52.086;21.066;2023-08-07T11:34:00;29.10;50.00
23475;DHT22;11910;52.086;21.066;2023-08-07T11:36:29;29.00;52.10
23475;DHT22;11910;52.086;21.066;2023-08-07T11:38:54;29.00;50.60
23475;DHT22;11910;52.086;21.066;2023-08-07T11:41:20;28.30;50.30
23475;DHT22;11910;52.086;21.066;2023-08-07T11:43:46;27.60;52.10
23475;DHT22;11910;52.086;21.066;2023-08-07T11:46:14;27.10;52.80
23475;DHT22;11910;52.086;21.066;2023-08-07T11:48:40;27.40;53.60
23475;DHT22;11910;52.086;21.066;2023-08-07T11:51:06;26.20;53.60
23475;DHT22;11910;52.086;21.066;2023-08-07T11:53:36;26.50;53.90
23475;DHT22;11910;52.086;21.066;2023-08-07T11:56:07;25.40;56.00
23475;DHT22;11910;52.086;21.066;2023-08-07T11:58:39;24.80;56.10
23475;DHT22;11910;52.086;21.066;2023-08-07T12:01:19;24.80;59.00
23475;DHT22;11910;52.086;21.066;2023-08-07T12:03:52;24.80;56.90
23475;DHT22;11910;52.086;21.066;2023-08-07T12:06:18;27.80;54.50
23475;DHT22;11910;52.086;21.066;2023-08-07T12:08:44;29.90;51.90
23475;DHT22;11910;52.086;21.066;2023-08-07T12:11:13;32.10;49.20
23475;DHT22;11910;52.086;21.066;2023-08-07T12:13:40;31.20;48.90
23475;DHT22;11910;52.086;21.066;2023-08-07T12:16:07;29.80;48.40
23475;DHT22;11910;52.086;21.066;2023-08-07T12:18:34;29.30;48.60
23475;DHT22;11910;52.086;21.066;2023-08-07T12:21:03;28.80;49.60
23475;DHT22;11910;52.086;21.066;2023-08-07T12:23:33;27.40;51.20
23475;DHT22;11910;52.086;21.066;2023-08-07T12:25:59;26.20;53.60
23475;DHT22;11910;52.086;21.066;2023-08-07T12:28:25;25.40;54.10
23475;DHT22;11910;52.086;21.066;2023-08-07T12:30:51;24.70;55.30
23475;DHT22;11910;52.086;21.066;2023-08-07T12:33:17;24.20;57.40
23475;DHT22;11910;52.086;21.066;2023-08-07T12:35:43;23.80;57.80
23475;DHT22;11910;52.086;21.066;2023-08-07T12:38:09;23.40;58.90
23475;DHT22;11910;52.086;21.066;2023-08-07T12:40:36;23.00;60.70
23475;DHT22;11910;52.086;21.066;2023-08-07T12:43:05;22.70;61.70
23475;DHT22;11910;52.086;21.066;2023-08-07T12:45:31;22.40;60.90
23475;DHT22;11910;52.086;21.066;2023-08-07T12:47:58;22.10;61.70
23475;DHT22;11910;52.086;21.066;2023-08-07T12:50:24;21.70;62.10
23475;DHT22;11910;52.086;21.066;2023-08-07T12:52:50;21.50;60.70
23475;DHT22;11910;52.086;21.066;2023-08-07T12:55:16;21.40;62.10
23475;DHT22;11910;52.086;21.066;2023-08-07T12:57:42;21.40;59.90
23475;DHT22;11910;52.086;21.066;2023-08-07T13:00:12;21.60;60.10
23475;DHT22;11910;52.086;21.066;2023-08-07T13:02:43;21.70;59.20
23475;DHT22;11910;52.086;21.066;2023-08-07T13:05:09;21.60;59.20
23475;DHT22;11910;52.086;21.066;2023-08-07T13:07:36;21.70;59.20
23475;DHT22;11910;52.086;21.066;2023-08-07T13:10:04;21.70;60.00
23475;DHT22;11910;52.086;21.066;2023-08-07T13:12:30;21.60;60.40
23475;DHT22;11910;52.086;21.066;2023-08-07T13:14:59;21.50;60.50
23475;DHT22;11910;52.086;21.066;2023-08-07T13:17:25;21.50;59.90
23475;DHT22;11910;52.086;21.066;2023-08-07T13:19:51;21.80;59.80
23475;DHT22;11910;52.086;21.066;2023-08-07T13:22:16;22.00;60.60
23475;DHT22;11910;52.086;21.066;2023-08-07T13:24:42;21.90;61.10
23475;DHT22;11910;52.086;21.066;2023-08-07T13:27:08;22.00;61.10
23475;DHT22;11910;52.086;21.066;2023-08-07T13:29:34;21.90;59.50
23475;DHT22;11910;52.086;21.066;2023-08-07T13:32:00;21.80;59.40
23475;DHT22;11910;52.086;21.066;2023-08-07T13:34:26;21.60;58.80
23475;DHT22;11910;52.086;21.066;2023-08-07T13:36:51;21.50;59.20
23475;DHT22;11910;52.086;21.066;2023-08-07T13:39:17;21.30;59.50
23475;DHT22;11910;52.086;21.066;2023-08-07T13:41:43;21.10;60.90
23475;DHT22;11910;52.086;21.066;2023-08-07T13:44:08;21.00;61.80
23475;DHT22;11910;52.086;21.066;2023-08-07T13:46:35;20.90;63.80
23475;DHT22;11910;52.086;21.066;2023-08-07T13:49:01;21.00;61.30
23475;DHT22;11910;52.086;21.066;2023-08-07T13:51:26;21.00;63.50
23475;DHT22;11910;52.086;21.066;2023-08-07T13:53:53;21.00;62.70
23475;DHT22;11910;52.086;21.066;2023-08-07T13:56:19;21.00;63.30
23475;DHT22;11910;52.086;21.066;2023-08-07T13:58:44;20.90;64.30
23475;DHT22;11910;52.086;21.066;2023-08-07T14:01:10;20.70;63.40
23475;DHT22;11910;52.086;21.066;2023-08-07T14:03:35;20.60;65.00
23475;DHT22;11910;52.086;21.066;2023-08-07T14:06:01;20.60;65.60
23475;DHT22;11910;52.086;21.066;2023-08-07T14:08:27;20.50;65.80
23475;DHT22;11910;52.086;21.066;2023-08-07T14:10:52;20.50;66.70
23475;DHT22;11910;52.086;21.066;2023-08-07T14:13:18;20.40;67.00
23475;DHT22;11910;52.086;21.066;2023-08-07T14:15:44;20.40;68.10
23475;DHT22;11910;52.086;21.066;2023-08-07T14:18:09;20.40;68.50
23475;DHT22;11910;52.086;21.066;2023-08-07T14:20:37;20.40;68.10
23475;DHT22;11910;52.086;21.066;2023-08-07T14:23:02;20.30;68.00
23475;DHT22;11910;52.086;21.066;2023-08-07T14:25:28;20.30;68.50
23475;DHT22;11910;52.086;21.066;2023-08-07T14:27:54;20.30;67.70
23475;DHT22;11910;52.086;21.066;2023-08-07T14:30:19;20.30;67.40
23475;DHT22;11910;52.086;21.066;2023-08-07T14:32:46;20.20;67.30
23475;DHT22;11910;52.086;21.066;2023-08-07T14:35:13;20.30;68.80
23475;DHT22;11910;52.086;21.066;2023-08-07T14:37:39;20.30;68.20
23475;DHT22;11910;52.086;21.066;2023-08-07T14:40:06;20.20;68.60
23475;DHT22;11910;52.086;21.066;2023-08-07T14:42:32;20.20;69.20
23475;DHT22;11910;52.086;21.066;2023-08-07T14:44:58;20.20;69.40
23475;DHT22;11910;52.086;21.066;2023-08-07T14:47:23;20.20;69.00
23475;DHT22;11910;52.086;21.066;2023-08-07T14:49:49;20.20;69.10
23475;DHT22;11910;52.086;21.066;2023-08-07T14:52:15;20.30;68.90
23475;DHT22;11910;52.086;21.066;2023-08-07T14:54:41;20.20;69.80
23475;DHT22;11910;52.086;21.066;2023-08-07T14:57:07;20.30;69.90
23475;DHT22;11910;52.086;21.066;2023-08-07T14:59:32;20.30;70.10
23475;DHT22;11910;52.086;21.066;2023-08-07T15:01:58;20.30;69.60
23475;DHT22;11910;52.086;21.066;2023-08-07T15:04:23;20.30;70.50
23475;DHT22;11910;52.086;21.066;2023-08-07T15:06:49;20.50;72.00
23475;DHT22;11910;52.086;21.066;2023-08-07T15:09:16;20.60;72.80
23475;DHT22;11910;52.086;21.066;2023-08-07T15:11:46;20.60;73.30
23475;DHT22;11910;52.086;21.066;2023-08-07T15:14:12;20.60;72.90
23475;DHT22;11910;52.086;21.066;2023-08-07T15:16:38;20.60;73.30
23475;DHT22;11910;52.086;21.066;2023-08-07T15:19:03;20.60;72.60